Time;durP1;ratioP1;P1;durP2;ratioP2;P2;SDS_P1;SDS_P2;PMS_P1;PMS_P2;Temp;Humidity;BMP_temperature;BMP_pressure;BME280_temperature;BME280_humidity;BME280_pressure;Samples;Min_cycle;Max_cycle;Signal;HPM_P1;HPM_P2
2022/03/10 00:02:09;;;;;;;50.10;22.60;;;0.50;93.50;;;;;;5068817;28;20028;-70
2022/03/10 00:04:38;;;;;;;42.70;19.98;;;0.50;93.30;;;;;;5063920;28;20032;-71
2022/03/10 00:07:04;;;;;;;46.42;20.77;;;0.40;93.60;;;;;;5071470;28;20046;-70
2022/03/10 00:09:33;;;;;;;48.95;20.35;;;0.40;94.10;;;;;;5071299;28;20299;-70
2022/03/10 00:12:00;;;;;;;48.90;20.60;;;0.40;94.30;;;;;;5070824;28;20028;-70
2022/03/10 00:14:26;;;;;;;50.85;22.63;;;0.30;94.70;;;;;;5065858;28;20029;-70
2022/03/10 00:16:52;;;;;;;48.88;20.85;;;0.30;95.30;;;;;;5071492;28;20031;-70
2022/03/10 00:19:19;;;;;;;46.78;20.42;;;0.30;95.50;;;;;;5077381;28;20013;-70
2022/03/10 00:21:46;;;;;;;46.72;21.42;;;0.30;95.80;;;;;;5067267;28;20025;-70
2022/03/10 00:24:12;;;;;;;52.63;22.40;;;0.30;95.80;;;;;;5072618;28;20027;-69
2022/03/10 00:26:38;;;;;;;47.28;19.83;;;0.30;96.50;;;;;;5065911;28;20021;-70
2022/03/10 00:29:04;;;;;;;45.95;20.15;;;0.40;96.50;;;;;;5066579;28;20027;-70
2022/03/10 00:31:30;;;;;;;47.08;20.30;;;0.40;96.30;;;;;;5067602;28;20415;-71
2022/03/10 00:33:56;;;;;;;45.95;20.83;;;0.40;96.10;;;;;;5069235;28;20116;-69
2022/03/10 00:36:21;;;;;;;46.72;20.92;;;0.30;96.40;;;;;;5067858;28;20396;-70
2022/03/10 00:38:47;;;;;;;44.80;20.70;;;0.20;96.70;;;;;;5068155;28;20429;-69
2022/03/10 00:41:12;;;;;;;48.20;19.70;;;0.20;96.60;;;;;;5075214;28;20041;-70
2022/03/10 00:43:38;;;;;;;47.35;21.10;;;0.20;96.90;;;;;;5068971;28;20056;-69
2022/03/10 00:46:04;;;;;;;52.70;21.75;;;0.10;97.30;;;;;;5066660;28;20020;-70
2022/03/10 00:48:29;;;;;;;46.70;21.90;;;0.10;97.50;;;;;;5068710;28;20103;-70
2022/03/10 00:50:55;;;;;;;48.47;20.65;;;0.10;97.40;;;;;;5073468;28;20099;-70
2022/03/10 00:53:21;;;;;;;48.67;21.13;;;0.00;97.60;;;;;;5076493;28;20074;-70
2022/03/10 00:55:46;;;;;;;45.63;20.00;;;0.00;97.30;;;;;;5079145;28;20386;-70
2022/03/10 00:58:12;;;;;;;51.45;20.88;;;-0.10;97.40;;;;;;5071858;28;20024;-70
2022/03/10 01:00:38;;;;;;;46.13;21.35;;;-0.10;97.50;;;;;;5075093;28;20020;-70
2022/03/10 01:03:05;;;;;;;46.13;20.63;;;-0.10;98.00;;;;;;5072322;28;20031;-70
2022/03/10 01:05:31;;;;;;;51.17;21.52;;;-0.10;97.80;;;;;;5066160;28;20023;-70
2022/03/10 01:07:57;;;;;;;42.60;19.95;;;-0.10;97.90;;;;;;5070579;28;20031;-70
2022/03/10 01:10:23;;;;;;;51.58;20.83;;;-0.20;98.10;;;;;;5066302;28;20033;-70
2022/03/10 01:12:50;;;;;;;45.53;20.38;;;-0.20;98.30;;;;;;5070130;28;20039;-70
2022/03/10 01:15:26;;;;;;;46.58;20.33;;;-0.20;99.20;;;;;;5070492;28;20026;-70
2022/03/10 01:17:53;;;;;;;40.83;19.33;;;-0.20;99.10;;;;;;5069128;28;20123;-70
2022/03/10 01:20:23;;;;;;;44.15;20.17;;;-0.20;98.70;;;;;;5071263;28;20033;-70
2022/03/10 01:22:50;;;;;;;50.10;20.20;;;-0.30;99.00;;;;;;5070537;28;20553;-69
2022/03/10 01:25:17;;;;;;;50.53;20.30;;;-0.30;99.60;;;;;;5069789;28;20032;-70
2022/03/10 01:27:42;;;;;;;49.88;22.63;;;-0.30;99.90;;;;;;5068968;28;20027;-69
2022/03/10 01:30:09;;;;;;;47.08;20.38;;;-0.40;99.90;;;;;;5071117;28;20409;-69
2022/03/10 01:32:35;;;;;;;52.45;22.48;;;-0.40;99.90;;;;;;5064755;28;20056;-70
2022/03/10 01:35:05;;;;;;;47.05;20.75;;;-0.40;99.90;;;;;;5071125;28;20042;-70
2022/03/10 01:37:36;;;;;;;44.90;20.23;;;-0.40;99.90;;;;;;5067511;28;20040;-70
2022/03/10 01:40:03;;;;;;;46.28;20.48;;;-0.50;99.90;;;;;;5065189;28;20021;-70
2022/03/10 01:42:29;;;;;;;44.08;20.35;;;-0.50;99.90;;;;;;5064718;28;20055;-70
2022/03/10 01:44:55;;;;;;;53.15;21.88;;;-0.50;99.90;;;;;;5063783;28;20461;-70
2022/03/10 01:47:22;;;;;;;49.13;20.88;;;-0.50;99.90;;;;;;5067606;28;20025;-70
2022/03/10 01:49:48;;;;;;;51.45;21.27;;;-0.50;99.90;;;;;;5065805;28;20024;-70
2022/03/10 01:52:15;;;;;;;43.13;20.30;;;-0.60;99.90;;;;;;5065363;28;20504;-69
2022/03/10 01:54:42;;;;;;;50.03;21.50;;;-0.60;99.90;;;;;;5070934;28;20041;-70
2022/03/10 01:57:10;;;;;;;42.15;19.35;;;-0.60;99.90;;;;;;5068064;28;20032;-70
2022/03/10 01:59:40;;;;;;;45.45;19.77;;;-0.60;99.90;;;;;;5069145;28;20085;-70
2022/03/10 02:02:06;;;;;;;43.35;20.70;;;-0.60;99.90;;;;;;5070146;28;20048;-70
2022/03/10 02:04:32;;;;;;;48.80;21.13;;;-0.60;99.90;;;;;;5072733;28;20023;-70
2022/03/10 02:07:01;;;;;;;42.53;18.83;;;-0.60;99.90;;;;;;5072077;28;20040;-69
2022/03/10 02:12:11;;;;;;;46.10;21.75;;;-0.60;99.90;;;;;;5069343;28;20075;-69
2022/03/10 02:17:20;;;;;;;;;;;-0.70;99.90;;;;;;5068811;28;20036;-70
2022/03/10 02:19:51;;;;;;;41.97;18.38;;;-0.70;99.90;;;;;;5066715;28;20365;-70
2022/03/10 02:22:17;;;;;;;46.45;19.42;;;-0.80;99.90;;;;;;5070123;28;20082;-70
2022/03/10 02:24:44;;;;;;;47.28;20.30;;;-0.80;99.90;;;;;;5066548;28;20087;-70
2022/03/10 02:27:19;;;;;;;46.47;20.13;;;-0.80;99.90;;;;;;5067216;28;20021;-69
2022/03/10 02:29:46;;;;;;;38.97;17.92;;;-0.90;99.90;;;;;;5066342;28;20500;-69
2022/03/10 02:32:13;;;;;;;43.90;19.08;;;-0.90;99.90;;;;;;5062012;28;20385;-70
2022/03/10 02:34:39;;;;;;;42.53;17.17;;;-0.90;99.90;;;;;;5069531;28;20116;-70
2022/03/10 02:37:06;;;;;;;43.25;19.00;;;-1.00;99.90;;;;;;5068470;28;21166;-70
2022/03/10 02:39:32;;;;;;;42.90;18.98;;;-1.00;99.90;;;;;;5062506;28;20032;-69
2022/03/10 02:41:57;;;;;;;46.85;19.70;;;-1.10;99.90;;;;;;5064394;28;20035;-70
2022/03/10 02:44:24;;;;;;;44.15;19.25;;;-1.10;99.90;;;;;;5069072;28;20040;-70
2022/03/10 02:46:50;;;;;;;45.53;19.95;;;-1.10;99.90;;;;;;5069761;28;20024;-70
2022/03/10 02:49:16;;;;;;;44.95;19.08;;;-1.10;99.90;;;;;;5065921;28;20032;-69
2022/03/10 02:51:41;;;;;;;50.85;18.75;;;-1.10;99.90;;;;;;5065548;28;20030;-69
2022/03/10 02:54:07;;;;;;;48.38;20.55;;;-1.10;99.90;;;;;;5066164;28;20125;-69
2022/03/10 02:56:33;;;;;;;40.88;19.40;;;-1.10;99.90;;;;;;5067879;28;20617;-70
2022/03/10 02:58:59;;;;;;;42.60;19.48;;;-1.20;99.90;;;;;;5064366;28;20115;-69
2022/03/10 03:01:25;;;;;;;47.20;20.20;;;-1.20;99.90;;;;;;5069725;28;20028;-70
2022/03/10 03:03:50;;;;;;;44.53;20.33;;;-1.20;99.90;;;;;;5072804;28;20404;-70
2022/03/10 03:06:16;;;;;;;41.08;17.58;;;-1.10;99.90;;;;;;5073297;28;20032;-70
2022/03/10 03:08:42;;;;;;;37.78;16.42;;;-1.10;99.90;;;;;;5068280;28;20016;-69
2022/03/10 03:11:07;;;;;;;35.92;15.27;;;-1.10;99.90;;;;;;5068400;28;20028;-69
2022/03/10 03:13:33;;;;;;;32.03;15.45;;;-1.10;99.90;;;;;;5063917;28;20047;-70
2022/03/10 03:15:59;;;;;;;34.53;14.38;;;-1.10;99.90;;;;;;5063443;28;20155;-70
2022/03/10 03:18:24;;;;;;;31.45;14.63;;;-1.10;99.90;;;;;;5070064;28;20028;-69
2022/03/10 03:20:50;;;;;;;34.63;14.32;;;-1.10;99.90;;;;;;5066631;28;20033;-69
2022/03/10 03:23:17;;;;;;;37.97;14.93;;;-1.10;99.90;;;;;;5072140;28;20029;-70
2022/03/10 03:25:42;;;;;;;34.83;15.45;;;-1.00;99.90;;;;;;5070307;28;20028;-69
2022/03/10 03:28:08;;;;;;;34.55;14.98;;;-1.00;99.90;;;;;;5071258;28;20047;-69
2022/03/10 03:30:34;;;;;;;29.63;14.07;;;-1.00;99.90;;;;;;5068527;28;20025;-70
2022/03/10 03:32:59;;;;;;;29.27;14.02;;;-1.00;99.90;;;;;;5068815;28;20035;-70
2022/03/10 03:35:25;;;;;;;30.77;14.15;;;-1.00;99.90;;;;;;5067633;28;20051;-69
2022/03/10 03:37:51;;;;;;;27.48;13.73;;;-1.00;99.90;;;;;;5067764;28;20059;-69
2022/03/10 03:40:17;;;;;;;31.33;13.45;;;-1.00;99.90;;;;;;5069061;28;20105;-70
2022/03/10 03:42:43;;;;;;;32.05;14.77;;;-1.00;99.90;;;;;;5067515;28;20107;-69
2022/03/10 03:45:10;;;;;;;31.45;14.35;;;-1.00;99.90;;;;;;5075587;28;20123;-70
2022/03/10 03:47:36;;;;;;;36.30;15.32;;;-1.00;99.90;;;;;;5066189;28;20037;-70
2022/03/10 03:50:02;;;;;;;72.13;24.17;;;-0.90;99.90;;;;;;5066811;28;20066;-70
2022/03/10 03:52:28;;;;;;;75.68;24.58;;;-1.00;99.90;;;;;;5065091;28;20052;-69
2022/03/10 03:54:53;;;;;;;55.13;18.70;;;-1.00;99.90;;;;;;5065769;28;20052;-70
2022/03/10 03:57:19;;;;;;;56.50;19.30;;;-1.00;99.90;;;;;;5070363;28;20081;-69
2022/03/10 03:59:45;;;;;;;50.65;17.15;;;-1.00;99.90;;;;;;5063032;28;20424;-70
2022/03/10 04:02:10;;;;;;;39.42;15.27;;;-1.10;99.90;;;;;;5063871;28;20063;-70
2022/03/10 04:04:36;;;;;;;38.63;15.63;;;-1.10;99.90;;;;;;5065433;28;20060;-70
2022/03/10 04:07:01;;;;;;;42.63;14.85;;;-1.10;99.90;;;;;;5071113;28;20032;-70
2022/03/10 04:09:27;;;;;;;40.40;17.50;;;-1.20;99.90;;;;;;5065200;28;20048;-70
2022/03/10 04:11:53;;;;;;;41.42;16.30;;;-1.20;99.90;;;;;;5065483;28;20025;-69
2022/03/10 04:14:19;;;;;;;42.38;18.80;;;-1.20;99.90;;;;;;5065335;28;20067;-70
2022/03/10 04:16:45;;;;;;;46.78;19.45;;;-1.30;99.90;;;;;;5062494;28;20016;-70
2022/03/10 04:19:11;;;;;;;41.38;18.02;;;-1.30;99.90;;;;;;5069840;28;20032;-70
2022/03/10 04:21:37;;;;;;;40.05;17.98;;;-1.30;99.90;;;;;;5062389;28;20036;-69
2022/03/10 04:24:03;;;;;;;46.50;18.17;;;-1.40;99.90;;;;;;5066690;28;20385;-69
2022/03/10 04:26:29;;;;;;;46.05;17.45;;;-1.40;99.90;;;;;;5066763;28;20020;-70
2022/03/10 04:28:54;;;;;;;40.08;18.10;;;-1.40;99.90;;;;;;5063622;28;20025;-70
2022/03/10 04:31:20;;;;;;;42.53;17.90;;;-1.50;99.90;;;;;;5063670;28;20036;-69
2022/03/10 04:33:46;;;;;;;42.40;18.25;;;-1.50;99.90;;;;;;5065289;28;20432;-70
2022/03/10 04:36:12;;;;;;;37.17;17.35;;;-1.50;99.90;;;;;;5066968;28;20028;-70
2022/03/10 04:38:38;;;;;;;44.10;19.25;;;-1.50;99.90;;;;;;5061378;28;20020;-69
2022/03/10 04:41:03;;;;;;;45.70;17.88;;;-1.60;99.90;;;;;;5066585;28;20017;-69
2022/03/10 04:43:29;;;;;;;41.78;18.77;;;-1.60;99.90;;;;;;5068116;28;20082;-69
2022/03/10 04:45:55;;;;;;;47.20;19.05;;;-1.60;99.90;;;;;;5068685;28;20025;-69
2022/03/10 04:48:21;;;;;;;36.78;17.45;;;-1.70;99.90;;;;;;5069881;28;20070;-70
2022/03/10 04:50:47;;;;;;;38.63;17.98;;;-1.70;99.90;;;;;;5065493;28;20021;-70
2022/03/10 04:53:13;;;;;;;39.50;17.65;;;-1.70;99.90;;;;;;5068100;28;20030;-70
2022/03/10 04:55:39;;;;;;;37.08;16.55;;;-1.70;99.90;;;;;;5064029;28;20493;-71
2022/03/10 04:58:05;;;;;;;33.35;14.85;;;-1.70;99.90;;;;;;5062389;28;20039;-70
2022/03/10 05:00:31;;;;;;;34.35;14.48;;;-1.80;99.90;;;;;;5061488;28;20035;-71
2022/03/10 05:02:57;;;;;;;31.92;14.38;;;-1.70;99.90;;;;;;5068988;28;20029;-70
2022/03/10 05:05:23;;;;;;;30.48;13.50;;;-1.70;99.90;;;;;;5059995;28;20083;-70
2022/03/10 05:07:48;;;;;;;25.60;12.43;;;-1.80;99.90;;;;;;5066135;28;20032;-70
2022/03/10 05:10:14;;;;;;;24.65;10.68;;;-1.70;99.90;;;;;;5072238;28;21202;-70
2022/03/10 05:13:01;;;;;;;23.75;10.55;;;-1.70;99.90;;;;;;5074080;28;20035;-69
2022/03/10 05:15:31;;;;;;;22.45;10.88;;;-1.60;99.90;;;;;;5066090;28;20578;-71
2022/03/10 05:17:57;;;;;;;19.60;10.65;;;-1.70;99.90;;;;;;5067490;28;20737;-69
2022/03/10 05:20:26;;;;;;;24.00;10.10;;;-1.70;99.90;;;;;;5068324;28;20100;-71
2022/03/10 05:22:57;;;;;;;27.75;10.57;;;-1.70;99.90;;;;;;5069755;28;20388;-71
2022/03/10 05:25:25;;;;;;;22.35;10.68;;;-1.70;99.90;;;;;;5062773;28;20025;-69
2022/03/10 05:27:52;;;;;;;20.60;10.32;;;-1.70;99.90;;;;;;5069125;28;20029;-70
2022/03/10 05:30:19;;;;;;;20.67;9.15;;;-1.70;99.90;;;;;;5069114;28;20377;-70
2022/03/10 05:32:46;;;;;;;28.95;10.32;;;-1.80;99.90;;;;;;5069903;28;20024;-70
2022/03/10 05:35:14;;;;;;;23.40;10.70;;;-1.70;99.90;;;;;;5065361;28;21042;-70
2022/03/10 05:37:41;;;;;;;21.85;9.57;;;-1.70;99.90;;;;;;5071688;28;20481;-70
2022/03/10 05:40:12;;;;;;;24.30;10.80;;;-1.80;99.90;;;;;;5070758;28;20078;-71
2022/03/10 05:42:39;;;;;;;23.50;10.68;;;-1.80;99.90;;;;;;5074974;28;20043;-70
2022/03/10 05:45:06;;;;;;;25.80;10.93;;;-1.80;99.90;;;;;;5064574;28;20045;-72
2022/03/10 05:47:32;;;;;;;23.40;10.35;;;-1.70;99.90;;;;;;5062578;28;20029;-69
2022/03/10 05:49:57;;;;;;;23.23;10.65;;;-1.70;99.90;;;;;;5058971;28;20489;-71
2022/03/10 05:52:23;;;;;;;23.67;10.65;;;-1.70;99.90;;;;;;5067753;28;20028;-71
2022/03/10 05:54:49;;;;;;;32.78;13.13;;;-1.70;99.90;;;;;;5063618;28;20044;-70
2022/03/10 05:57:14;;;;;;;38.78;15.73;;;-1.60;99.90;;;;;;5060966;28;20025;-70
2022/03/10 05:59:40;;;;;;;36.03;16.15;;;-1.60;99.90;;;;;;5065765;28;20039;-66
2022/03/10 06:02:06;;;;;;;41.30;17.98;;;-1.60;99.90;;;;;;5063280;28;20020;-72
2022/03/10 06:04:31;;;;;;;42.35;17.60;;;-1.50;99.90;;;;;;5069757;28;20033;-71
2022/03/10 06:06:57;;;;;;;36.97;17.15;;;-1.50;99.90;;;;;;5071070;28;20119;-71
2022/03/10 06:09:23;;;;;;;36.55;17.08;;;-1.50;99.90;;;;;;5070706;28;20416;-69
2022/03/10 06:11:48;;;;;;;42.72;17.38;;;-1.50;99.90;;;;;;5067081;28;20546;-71
2022/03/10 06:14:14;;;;;;;45.42;17.80;;;-1.60;99.90;;;;;;5072260;28;20032;-71
2022/03/10 06:16:40;;;;;;;39.67;17.15;;;-1.60;99.90;;;;;;5073305;28;20029;-71
2022/03/10 06:19:08;;;;;;;38.80;16.52;;;-1.60;99.90;;;;;;5066373;28;20032;-72
2022/03/10 06:21:34;;;;;;;38.75;16.35;;;-1.60;99.90;;;;;;5067266;28;20024;-71
2022/03/10 06:24:00;;;;;;;38.85;17.98;;;-1.60;99.90;;;;;;5069548;28;20044;-71
2022/03/10 06:26:26;;;;;;;43.05;17.10;;;-1.50;99.90;;;;;;5070972;28;20020;-71
2022/03/10 06:28:51;;;;;;;44.42;18.17;;;-1.50;99.90;;;;;;5066972;28;20051;-71
2022/03/10 06:31:17;;;;;;;40.55;17.38;;;-1.40;99.90;;;;;;5068494;28;20021;-71
2022/03/10 06:33:42;;;;;;;40.65;18.05;;;-1.40;99.90;;;;;;5067687;28;20470;-71
2022/03/10 06:36:08;;;;;;;39.35;18.63;;;-1.40;99.90;;;;;;5066636;28;20442;-71
2022/03/10 06:38:36;;;;;;;38.67;16.85;;;-1.40;99.90;;;;;;5067480;28;20276;-72
2022/03/10 06:41:02;;;;;;;39.33;16.85;;;-1.30;99.90;;;;;;5065754;28;20019;-71
2022/03/10 06:43:27;;;;;;;41.33;17.15;;;-1.30;99.90;;;;;;5066159;28;20069;-72
2022/03/10 06:45:53;;;;;;;35.72;16.23;;;-1.20;99.90;;;;;;5064958;28;20021;-72
2022/03/10 06:48:20;;;;;;;36.20;17.73;;;-1.20;99.90;;;;;;5067628;28;20505;-72
2022/03/10 06:50:45;;;;;;;36.67;16.63;;;-1.20;99.90;;;;;;5066792;28;20120;-72
2022/03/10 06:53:12;;;;;;;38.92;17.17;;;-1.00;99.90;;;;;;5066216;28;20167;-70
2022/03/10 06:55:38;;;;;;;38.55;16.90;;;-0.90;99.90;;;;;;5067080;28;20033;-71
2022/03/10 06:58:04;;;;;;;43.25;17.52;;;-0.90;99.90;;;;;;5067121;28;20488;-70
2022/03/10 07:00:31;;;;;;;38.38;16.25;;;-0.80;99.90;;;;;;5068708;28;20061;-70
2022/03/10 07:02:57;;;;;;;55.83;18.60;;;-0.70;99.90;;;;;;5072964;28;20063;-71
2022/03/10 07:05:23;;;;;;;35.47;15.80;;;-0.70;99.90;;;;;;5067022;28;20020;-72
2022/03/10 07:07:49;;;;;;;37.78;16.15;;;-0.60;99.90;;;;;;5069193;28;20453;-72
2022/03/10 07:10:15;;;;;;;37.97;16.65;;;-0.50;99.90;;;;;;5067118;28;20099;-69
2022/03/10 07:12:42;;;;;;;31.58;15.98;;;-0.40;99.90;;;;;;5067338;28;20039;-71
2022/03/10 07:15:09;;;;;;;42.35;18.02;;;-0.30;99.90;;;;;;5067363;28;20020;-70
2022/03/10 07:17:35;;;;;;;38.38;17.60;;;-0.20;99.90;;;;;;5063701;28;20029;-72
2022/03/10 07:20:01;;;;;;;38.13;17.88;;;-0.20;99.90;;;;;;5062527;28;20446;-69
2022/03/10 07:22:26;;;;;;;38.83;18.27;;;-0.10;99.90;;;;;;5056164;28;20035;-71
2022/03/10 07:24:52;;;;;;;40.95;16.83;;;0.00;99.90;;;;;;5062843;28;20025;-71
2022/03/10 07:27:18;;;;;;;40.67;17.05;;;0.10;99.90;;;;;;5064669;28;25284;-70
2022/03/10 07:29:44;;;;;;;36.38;17.20;;;0.20;99.90;;;;;;5062756;28;20069;-70
2022/03/10 07:32:09;;;;;;;37.45;17.15;;;0.20;99.90;;;;;;5059989;28;20032;-70
2022/03/10 07:34:35;;;;;;;34.72;16.77;;;0.30;99.90;;;;;;5061041;28;20111;-70
2022/03/10 07:37:01;;;;;;;39.97;17.27;;;0.40;99.90;;;;;;5060170;28;20036;-69
2022/03/10 07:39:26;;;;;;;40.00;17.77;;;0.50;99.90;;;;;;5061943;28;20389;-69
2022/03/10 07:41:53;;;;;;;37.33;18.17;;;0.60;99.90;;;;;;5059108;28;20029;-69
2022/03/10 07:44:19;;;;;;;38.08;17.20;;;0.60;99.90;;;;;;5061200;28;20028;-70
2022/03/10 07:46:44;;;;;;;41.17;18.15;;;0.70;99.90;;;;;;5063433;28;20029;-69
2022/03/10 07:49:10;;;;;;;39.28;16.98;;;0.80;99.90;;;;;;5063864;28;20410;-69
2022/03/10 07:51:36;;;;;;;48.97;18.75;;;0.80;99.90;;;;;;5060740;28;20032;-70
2022/03/10 07:54:01;;;;;;;34.83;16.60;;;0.90;99.90;;;;;;5054155;28;20055;-70
2022/03/10 07:56:27;;;;;;;35.10;17.08;;;1.00;99.90;;;;;;5059012;28;20108;-69
2022/03/10 07:58:53;;;;;;;42.97;18.00;;;1.00;99.90;;;;;;5063778;28;20028;-69
2022/03/10 08:01:19;;;;;;;40.60;17.90;;;1.10;99.90;;;;;;5067599;28;20036;-70
2022/03/10 08:03:47;;;;;;;38.03;17.05;;;1.20;99.90;;;;;;5061448;28;20496;-69
2022/03/10 08:06:13;;;;;;;35.20;16.85;;;1.30;99.60;;;;;;5061055;28;20024;-69
2022/03/10 08:08:39;;;;;;;37.50;17.20;;;1.30;99.40;;;;;;5065433;28;20033;-70
2022/03/10 08:11:08;;;;;;;37.53;18.10;;;1.40;99.20;;;;;;5060949;28;20044;-70
2022/03/10 08:13:34;;;;;;;39.17;18.35;;;1.50;99.30;;;;;;5062536;28;20489;-69
2022/03/10 08:16:00;;;;;;;37.80;17.55;;;1.50;99.20;;;;;;5065390;28;21040;-70
2022/03/10 08:18:26;;;;;;;39.97;16.95;;;1.60;98.80;;;;;;5062205;28;20112;-70
2022/03/10 08:20:52;;;;;;;37.03;19.63;;;1.70;98.70;;;;;;5064556;28;20073;-70
2022/03/10 08:23:19;;;;;;;35.97;16.85;;;1.80;98.90;;;;;;5066117;28;20127;-70
2022/03/10 08:25:45;;;;;;;38.28;17.70;;;1.90;98.40;;;;;;5062110;28;20017;-69
2022/03/10 08:28:11;;;;;;;40.47;18.27;;;2.00;98.30;;;;;;5064025;28;20539;-64
2022/03/10 08:30:38;;;;;;;39.90;18.67;;;2.10;98.50;;;;;;5061603;28;20025;-70
2022/03/10 08:33:04;;;;;;;40.35;17.85;;;2.20;98.00;;;;;;5064369;28;20110;-69
2022/03/10 08:35:30;;;;;;;49.17;19.27;;;2.30;98.00;;;;;;5059970;28;20028;-71
2022/03/10 08:37:56;;;;;;;41.33;18.60;;;2.40;97.50;;;;;;5061401;28;20115;-71
2022/03/10 08:40:22;;;;;;;36.58;17.73;;;2.50;97.10;;;;;;5066210;28;20149;-73
2022/03/10 08:42:50;;;;;;;40.58;20.80;;;2.60;97.00;;;;;;5062776;28;20028;-72
2022/03/10 08:45:16;;;;;;;35.88;17.65;;;2.60;96.80;;;;;;5065858;28;20501;-72
2022/03/10 08:47:42;;;;;;;36.70;17.52;;;2.70;96.30;;;;;;5065972;28;20051;-71
2022/03/10 08:50:09;;;;;;;38.95;18.40;;;2.80;96.30;;;;;;5058309;28;20019;-72
2022/03/10 08:52:35;;;;;;;40.75;19.85;;;2.90;95.40;;;;;;5062856;28;20021;-73
2022/03/10 08:55:01;;;;;;;42.25;18.70;;;3.00;95.60;;;;;;5062085;28;20307;-73
2022/03/10 08:57:26;;;;;;;39.22;18.75;;;3.10;95.40;;;;;;5067690;28;20035;-73
2022/03/10 08:59:52;;;;;;;43.60;19.25;;;3.20;95.00;;;;;;5065402;28;20031;-72
2022/03/10 09:02:18;;;;;;;41.58;18.30;;;3.40;95.00;;;;;;5067094;28;20036;-72
2022/03/10 09:04:44;;;;;;;34.28;17.35;;;3.50;94.30;;;;;;5060848;28;20025;-71
2022/03/10 09:07:10;;;;;;;38.53;18.27;;;3.70;93.70;;;;;;5071537;28;20033;-72
2022/03/10 09:09:35;;;;;;;41.85;17.92;;;3.80;93.50;;;;;;5069061;28;20016;-72
2022/03/10 09:12:01;;;;;;;36.38;16.83;;;3.90;93.10;;;;;;5067090;28;20773;-73
2022/03/10 09:14:27;;;;;;;36.35;17.25;;;4.00;93.10;;;;;;5071148;28;20028;-72
2022/03/10 09:16:52;;;;;;;37.83;17.48;;;4.10;92.80;;;;;;5073779;28;20035;-72
2022/03/10 09:19:18;;;;;;;35.25;17.23;;;4.30;92.40;;;;;;5067632;28;20124;-73
2022/03/10 09:21:44;;;;;;;33.90;17.17;;;4.50;91.90;;;;;;5072934;28;20345;-72
2022/03/10 09:24:10;;;;;;;31.92;15.30;;;4.70;91.50;;;;;;5069831;28;20062;-72
2022/03/10 09:26:38;;;;;;;36.33;15.40;;;4.70;90.70;;;;;;5068806;28;20469;-72
2022/03/10 09:29:04;;;;;;;30.98;13.55;;;4.90;90.20;;;;;;5072301;28;20020;-72
2022/03/10 09:31:30;;;;;;;27.27;12.75;;;5.00;89.70;;;;;;5069128;28;20032;-73
2022/03/10 09:33:55;;;;;;;27.67;12.77;;;5.20;87.50;;;;;;5067260;28;20021;-72
2022/03/10 09:36:21;;;;;;;24.98;12.52;;;5.20;86.70;;;;;;5075690;28;20115;-72
2022/03/10 09:38:47;;;;;;;31.48;11.93;;;5.40;85.70;;;;;;5077268;28;20025;-72
2022/03/10 09:41:12;;;;;;;22.92;11.05;;;5.50;84.60;;;;;;5072900;28;20481;-72
2022/03/10 09:43:39;;;;;;;26.65;12.35;;;5.70;83.30;;;;;;5070924;28;20024;-72
2022/03/10 09:46:09;;;;;;;24.58;12.25;;;5.80;82.90;;;;;;5080159;28;20028;-72
2022/03/10 09:48:39;;;;;;;26.05;12.80;;;5.90;82.20;;;;;;5068949;28;20020;-71
2022/03/10 09:51:06;;;;;;;29.45;13.70;;;6.00;81.90;;;;;;5068929;28;20458;-73
2022/03/10 09:53:34;;;;;;;27.70;13.63;;;6.00;81.70;;;;;;5071399;28;20037;-71
2022/03/10 09:56:01;;;;;;;26.95;13.77;;;6.20;81.60;;;;;;5070950;28;20484;-72
2022/03/10 09:58:27;;;;;;;29.67;14.35;;;6.20;82.10;;;;;;5075284;28;20025;-70
2022/03/10 10:01:04;;;;;;;29.55;14.93;;;6.30;82.40;;;;;;5068575;28;20055;-71
2022/03/10 10:03:29;;;;;;;32.90;15.30;;;6.40;81.80;;;;;;5071247;28;20016;-73
2022/03/10 10:06:00;;;;;;;29.35;15.15;;;6.40;82.20;;;;;;5069231;28;20542;-73
2022/03/10 10:08:27;;;;;;;30.27;15.15;;;6.60;82.00;;;;;;5064955;28;20024;-72
2022/03/10 10:10:56;;;;;;;30.92;15.85;;;6.70;81.70;;;;;;5071169;28;20024;-72
2022/03/10 10:13:39;;;;;;;28.85;14.70;;;6.80;81.60;;;;;;5067047;28;20028;-73
2022/03/10 10:16:14;;;;;;;29.80;15.45;;;7.10;80.80;;;;;;5063676;28;20029;-74
2022/03/10 10:18:41;;;;;;;30.60;15.68;;;7.30;80.40;;;;;;5069893;28;20545;-74
2022/03/10 10:21:08;;;;;;;26.70;14.02;;;7.40;79.80;;;;;;5070155;28;20024;-73
2022/03/10 10:23:36;;;;;;;31.38;14.77;;;7.50;79.60;;;;;;5065956;28;20020;-72
2022/03/10 10:26:12;;;;;;;28.75;14.82;;;7.60;79.30;;;;;;5061898;28;20028;-73
2022/03/10 10:28:42;;;;;;;29.75;15.00;;;7.60;79.30;;;;;;5068348;28;20343;-73
2022/03/10 10:31:10;;;;;;;29.90;12.93;;;7.70;78.80;;;;;;5077124;28;20024;-73
2022/03/10 10:33:37;;;;;;;32.45;13.98;;;7.80;78.80;;;;;;5070569;28;20025;-73
2022/03/10 10:36:13;;;;;;;26.55;13.85;;;8.00;77.40;;;;;;5071904;28;20436;-73
2022/03/10 10:38:39;;;;;;;24.90;13.35;;;8.20;76.80;;;;;;5062441;28;20394;-75
2022/03/10 10:41:28;;;;;;;29.55;13.27;;;8.40;75.70;;;;;;5071860;28;20021;-73
2022/03/10 10:43:56;;;;;;;15.27;7.07;;;8.60;75.10;;;;;;5065901;28;20077;-74
2022/03/10 10:46:26;;;;;;;8.18;3.80;;;8.80;69.50;;;;;;5068539;28;20025;-74
2022/03/10 10:48:52;;;;;;;5.32;2.00;;;9.20;64.50;;;;;;5064611;28;20497;-73
2022/03/10 10:51:39;;;;;;;4.60;2.17;;;9.50;59.70;;;;;;5063680;28;20024;-71
2022/03/10 10:54:24;;;;;;;4.65;1.38;;;9.70;58.60;;;;;;5072185;28;20044;-76
2022/03/10 10:57:06;;;;;;;4.25;1.60;;;10.00;56.50;;;;;;5065863;28;20497;-74
2022/03/10 10:59:37;;;;;;;3.95;1.73;;;10.20;54.60;;;;;;5064643;28;20035;-74
2022/03/10 11:02:11;;;;;;;3.33;1.55;;;10.40;53.40;;;;;;5060350;28;20112;-71
2022/03/10 11:04:42;;;;;;;3.70;1.60;;;10.70;52.90;;;;;;5068126;28;20028;-72
2022/03/10 11:07:09;;;;;;;4.05;1.73;;;10.80;52.00;;;;;;5065423;28;20450;-72
2022/03/10 11:09:36;;;;;;;3.78;1.63;;;10.80;51.50;;;;;;5066683;28;20017;-72
2022/03/10 11:12:02;;;;;;;2.95;1.48;;;10.90;50.70;;;;;;5061472;28;20442;-73
2022/03/10 11:14:27;;;;;;;5.85;1.80;;;10.90;49.20;;;;;;5064034;28;20059;-72
2022/03/10 11:16:55;;;;;;;5.47;1.80;;;10.90;49.30;;;;;;5067093;28;20035;-71
2022/03/10 11:19:25;;;;;;;4.22;1.77;;;11.00;49.60;;;;;;5062709;28;20024;-72
2022/03/10 11:22:12;;;;;;;3.83;2.03;;;10.90;50.30;;;;;;5067109;28;20085;-71
2022/03/10 11:25:06;;;;;;;4.68;2.50;;;10.90;50.00;;;;;;5062419;28;20103;-71
2022/03/10 11:27:51;;;;;;;6.38;1.80;;;10.90;49.70;;;;;;5064372;28;20025;-72
2022/03/10 11:30:17;;;;;;;2.65;1.60;;;10.90;49.40;;;;;;5063064;28;20558;-71
2022/03/10 11:32:58;;;;;;;5.35;2.15;;;10.90;49.00;;;;;;5062466;28;20244;-73
2022/03/10 11:35:31;;;;;;;4.32;2.03;;;10.90;49.00;;;;;;5068301;28;20415;-75
2022/03/10 11:37:57;;;;;;;6.40;2.50;;;11.00;49.30;;;;;;5064616;28;20089;-73
2022/03/10 11:40:43;;;;;;;5.93;2.30;;;11.00;48.70;;;;;;5071803;28;20672;-73
2022/03/10 11:43:10;;;;;;;5.85;2.25;;;10.90;48.80;;;;;;5069938;28;20052;-75
2022/03/10 11:45:36;;;;;;;6.05;1.70;;;10.90;49.20;;;;;;5070252;28;20375;-76
2022/03/10 11:48:23;;;;;;;3.30;1.83;;;10.90;48.80;;;;;;5064313;28;20120;-75
2022/03/10 11:50:50;;;;;;;3.05;1.85;;;11.00;48.20;;;;;;5068290;28;20040;-75
2022/03/10 11:53:16;;;;;;;3.30;1.75;;;11.00;48.00;;;;;;5066972;28;20024;-74
2022/03/10 11:55:53;;;;;;;4.25;1.90;;;11.20;47.80;;;;;;5063716;28;20127;-74
2022/03/10 11:58:20;;;;;;;4.38;1.77;;;11.40;46.90;;;;;;5065642;28;20033;-74
2022/03/10 12:00:51;;;;;;;3.00;1.60;;;11.40;46.80;;;;;;5063810;28;20277;-74
2022/03/10 12:03:34;;;;;;;4.82;1.70;;;11.60;45.70;;;;;;5064083;28;20029;-75
2022/03/10 12:06:00;;;;;;;4.80;1.98;;;11.50;45.90;;;;;;5063453;28;20023;-74
2022/03/10 12:08:31;;;;;;;5.55;2.22;;;11.60;46.20;;;;;;5065836;28;20507;-75
2022/03/10 12:10:58;;;;;;;4.22;2.25;;;11.60;45.80;;;;;;5069357;28;20052;-76
2022/03/10 12:13:35;;;;;;;3.95;1.75;;;11.60;46.20;;;;;;5064794;28;20392;-77
2022/03/10 12:16:03;;;;;;;3.80;1.95;;;11.60;45.20;;;;;;5066087;28;20035;-76
2022/03/10 12:18:30;;;;;;;3.13;1.80;;;11.70;44.40;;;;;;5067260;28;20025;-76
2022/03/10 12:20:58;;;;;;;4.97;2.05;;;11.60;44.80;;;;;;5069874;28;20029;-76
2022/03/10 12:23:26;;;;;;;5.32;1.27;;;11.80;43.40;;;;;;5064967;28;20144;-76
2022/03/10 12:25:59;;;;;;;2.60;1.23;;;11.90;42.90;;;;;;5063916;28;20043;-75
2022/03/10 12:28:27;;;;;;;2.38;1.23;;;12.10;42.60;;;;;;5064069;28;20036;-76
2022/03/10 12:31:04;;;;;;;2.78;1.50;;;12.10;42.70;;;;;;5059789;28;20044;-75
2022/03/10 12:33:30;;;;;;;2.65;1.20;;;12.00;42.80;;;;;;5068272;28;20032;-75
2022/03/10 12:35:58;;;;;;;2.97;1.60;;;11.90;41.40;;;;;;5068015;28;20066;-75
2022/03/10 12:38:38;;;;;;;3.50;1.17;;;12.00;41.30;;;;;;5068108;28;20111;-75
2022/03/10 12:41:04;;;;;;;3.65;1.55;;;12.00;40.90;;;;;;5069417;28;20032;-78